Time;durP1;ratioP1;P1;durP2;ratioP2;P2;SDS_P1;SDS_P2;PMS_P1;PMS_P2;Temp;Humidity;BMP_temperature;BMP_pressure;BME280_temperature;BME280_humidity;BME280_pressure;Samples;Min_cycle;Max_cycle;Signal;HPM_P1;HPM_P2
2023/01/02 00:00:14;;;;;;;101.10;71.10;;;;;;;2.50;100.00;99688.48;106091;1281;59124;-73
2023/01/02 00:03:00;;;;;;;105.20;73.00;;;;;;;2.46;100.00;99684.19;106040;1288;66392;-72
2023/01/02 00:05:26;;;;;;;93.10;65.50;;;;;;;2.43;100.00;99683.55;105751;1291;58996;-72
2023/01/02 00:07:52;;;;;;;96.00;65.10;;;;;;;2.39;100.00;99682.04;106063;1283;58973;-72
2023/01/02 00:10:18;;;;;;;90.40;61.90;;;;;;;2.35;100.00;99678.64;106038;1288;58987;-72
2023/01/02 00:12:44;;;;;;;103.00;65.20;;;;;;;2.30;100.00;99680.68;106024;1288;58904;-72
2023/01/02 00:15:12;;;;;;;94.40;63.80;;;;;;;2.25;100.00;99677.98;106047;1289;59001;-72
2023/01/02 00:17:38;;;;;;;93.40;65.80;;;;;;;2.22;100.00;99676.66;105848;1291;59292;-73
2023/01/02 00:20:04;;;;;;;105.80;68.60;;;;;;;2.17;100.00;99677.61;105778;1295;59231;-72
2023/01/02 00:22:30;;;;;;;93.10;65.10;;;;;;;2.18;100.00;99675.33;106061;1289;58920;-72
2023/01/02 00:24:56;;;;;;;94.20;64.30;;;;;;;2.16;100.00;99674.15;106014;1288;59269;-71
2023/01/02 00:27:22;;;;;;;102.70;62.40;;;;;;;2.12;100.00;99668.80;106057;1286;59239;-72
2023/01/02 00:29:49;;;;;;;108.00;68.70;;;;;;;2.05;100.00;99670.52;106037;1288;59086;-72
2023/01/02 00:32:15;;;;;;;110.70;71.20;;;;;;;1.99;100.00;99670.48;106060;1289;58914;-72
2023/01/02 00:34:41;;;;;;;102.00;66.30;;;;;;;1.98;100.00;99668.05;106060;1291;59243;-72
2023/01/02 00:37:07;;;;;;;107.80;69.70;;;;;;;1.98;100.00;99668.05;106055;1289;58925;-72
2023/01/02 00:39:33;;;;;;;101.80;69.30;;;;;;;2.02;100.00;99671.64;106075;1291;58997;-72
2023/01/02 00:41:59;;;;;;;105.00;68.00;;;;;;;2.05;100.00;99671.58;106058;1289;58828;-73
2023/01/02 00:44:25;;;;;;;98.30;66.30;;;;;;;2.06;100.00;99669.09;105708;1287;59051;-72
2023/01/02 00:46:51;;;;;;;107.90;70.40;;;;;;;2.07;100.00;99670.33;105806;1285;59334;-71
2023/01/02 00:49:17;;;;;;;108.60;69.30;;;;;;;2.04;100.00;99668.64;105668;1288;59026;-71
2023/01/02 00:51:43;;;;;;;103.30;64.80;;;;;;;1.99;100.00;99664.34;106034;1287;58977;-71
2023/01/02 00:54:09;;;;;;;107.70;67.50;;;;;;;1.93;100.00;99667.26;106049;1291;58997;-72
2023/01/02 00:56:35;;;;;;;98.50;66.60;;;;;;;1.89;100.00;99666.84;106069;1289;59006;-71
2023/01/02 00:59:01;;;;;;;131.20;71.20;;;;;;;1.86;100.00;99670.05;106060;1286;58908;-70
2023/01/02 01:01:28;;;;;;;116.70;74.00;;;;;;;1.85;100.00;99674.45;106051;1288;59372;-71
2023/01/02 01:03:54;;;;;;;113.20;74.00;;;;;;;1.86;100.00;99675.47;106046;1281;59116;-71
2023/01/02 01:06:21;;;;;;;121.50;78.30;;;;;;;1.88;100.00;99675.80;106050;1288;58981;-72
2023/01/02 01:08:48;;;;;;;127.30;82.60;;;;;;;1.88;100.00;99678.59;106026;1281;59354;-71
2023/01/02 01:11:16;;;;;;;129.90;81.90;;;;;;;1.88;100.00;99677.38;106027;1285;58930;-71
2023/01/02 01:13:44;;;;;;;124.70;80.90;;;;;;;1.87;100.00;99680.90;106015;1288;58975;-71
2023/01/02 01:16:13;;;;;;;114.00;74.50;;;;;;;1.87;100.00;99677.21;105749;1298;58877;-71
2023/01/02 01:18:39;;;;;;;112.20;74.30;;;;;;;1.84;100.00;99673.23;106002;1287;59225;-71
2023/01/02 01:21:15;;;;;;;105.30;71.60;;;;;;;1.78;100.00;99671.63;106049;1281;59387;-71
2023/01/02 01:23:42;;;;;;;108.40;71.90;;;;;;;1.72;100.00;99676.10;106044;1288;60173;-71
2023/01/02 01:26:11;;;;;;;113.00;72.30;;;;;;;1.68;100.00;99670.94;105756;1300;64838;-72
2023/01/02 01:28:39;;;;;;;110.70;73.50;;;;;;;1.65;100.00;99665.75;106046;1289;58990;-71
2023/01/02 01:31:10;;;;;;;106.40;70.40;;;;;;;1.62;100.00;99661.44;106060;1289;59026;-72
2023/01/02 01:33:37;;;;;;;96.80;64.80;;;;;;;1.56;100.00;99658.74;105898;1298;67045;-72
2023/01/02 01:36:10;;;;;;;114.90;74.80;;;;;;;1.52;100.00;99657.94;105812;1294;59890;-70
2023/01/02 01:38:36;;;;;;;103.40;69.30;;;;;;;1.51;100.00;99654.09;106055;1288;62400;-72
2023/01/02 01:41:04;;;;;;;109.40;71.70;;;;;;;1.51;100.00;99650.25;106003;1292;59005;-71
2023/01/02 01:43:37;;;;;;;105.40;70.60;;;;;;;1.48;100.00;99643.14;106028;1283;59281;-71
2023/01/02 01:46:09;;;;;;;118.40;75.90;;;;;;;1.41;100.00;99640.66;106068;1289;74788;-71
2023/01/02 01:48:35;;;;;;;118.40;76.30;;;;;;;1.39;100.00;99640.67;105888;1291;60903;-71
2023/01/02 01:51:01;;;;;;;107.10;70.20;;;;;;;1.39;100.00;99638.05;106059;1287;63841;-71
2023/01/02 01:53:28;;;;;;;101.70;67.80;;;;;;;1.38;100.00;99634.41;106028;1273;58890;-71
2023/01/02 01:55:59;;;;;;;116.30;73.60;;;;;;;1.37;100.00;99635.66;106033;1289;58930;-71
2023/01/02 01:58:30;;;;;;;116.80;79.60;;;;;;;1.34;100.00;99631.15;106031;1281;74572;-71
2023/01/02 02:00:58;;;;;;;122.80;76.10;;;;;;;1.33;100.00;99626.63;106054;1289;60745;-71
2023/01/02 02:03:29;;;;;;;121.50;80.40;;;;;;;1.35;100.00;99623.11;106055;1288;59089;-71
2023/01/02 02:05:57;;;;;;;117.20;77.80;;;;;;;1.35;100.00;99618.35;106061;1289;58930;-72
2023/01/02 02:08:52;;;;;;;115.10;73.40;;;;;;;1.35;100.00;99615.05;106035;1288;58761;-72
2023/01/02 02:11:19;;;;;;;106.30;71.00;;;;;;;1.33;100.00;99613.48;106038;1289;67114;-72
2023/01/02 02:13:45;;;;;;;115.90;75.10;;;;;;;1.29;100.00;99610.59;106056;1289;58993;-72
2023/01/02 02:16:16;;;;;;;111.70;75.30;;;;;;;1.25;100.00;99610.50;106044;1287;64089;-72
2023/01/02 02:19:18;;;;;;;115.00;72.60;;;;;;;1.21;100.00;99602.88;105742;1290;59480;-72
2023/01/02 02:22:13;;;;;;;123.10;73.30;;;;;;;1.16;100.00;99596.48;106055;1288;58869;-72
2023/01/02 02:24:53;;;;;;;120.90;72.50;;;;;;;1.09;100.00;99587.52;105998;1287;66246;-72
2023/01/02 02:27:34;;;;;;;;;;;;;;;1.03;100.00;99583.27;106067;1290;59944;-73
2023/01/02 02:30:06;;;;;;;114.90;70.00;;;;;;;1.00;100.00;99586.13;106038;1294;64982;-72
2023/01/02 02:33:06;;;;;;;126.70;78.50;;;;;;;1.01;100.00;99594.14;106056;1287;58843;-72
2023/01/02 02:36:13;;;;;;;152.10;85.50;;;;;;;1.05;100.00;99596.70;106058;1295;58960;-72
2023/01/02 02:38:57;;;;;;;151.90;90.60;;;;;;;1.09;100.00;99595.92;105413;1297;67727;-72
2023/01/02 02:41:32;;;;;;;162.30;90.60;;;;;;;1.12;100.00;99595.52;105435;1296;59224;-72
2023/01/02 02:44:09;;;;;;;152.80;91.60;;;;;;;1.11;100.00;99591.52;105414;1298;64171;-72
2023/01/02 02:46:46;;;;;;;160.00;94.60;;;;;;;1.10;100.00;99596.25;105426;1301;58944;-73
2023/01/02 02:49:33;;;;;;;161.90;95.30;;;;;;;1.08;100.00;99595.95;105449;1294;58835;-73
2023/01/02 02:52:06;;;;;;;167.70;101.50;;;;;;;1.03;100.00;99595.51;105389;1303;65804;-72
2023/01/02 02:54:38;;;;;;;175.60;102.00;;;;;;;1.04;100.00;99592.87;105418;1296;60843;-72
2023/01/02 02:57:07;;;;;;;145.40;93.60;;;;;;;1.06;100.00;99591.25;105371;1300;62422;-72
2023/01/02 02:59:35;;;;;;;148.30;94.20;;;;;;;1.08;100.00;99589.48;105415;1296;59247;-72
2023/01/02 03:02:03;;;;;;;160.50;97.90;;;;;;;1.07;100.00;99584.05;105448;1297;59064;-72
2023/01/02 03:04:30;;;;;;;159.60;97.40;;;;;;;1.07;100.00;99587.38;105411;1297;67097;-72
2023/01/02 03:07:15;;;;;;;149.10;93.20;;;;;;;1.06;100.00;99588.27;105408;1294;59263;-71
2023/01/02 03:10:03;;;;;;;148.00;92.00;;;;;;;1.06;100.00;99582.00;105251;1297;64177;-72
2023/01/02 03:12:47;;;;;;;181.10;102.40;;;;;;;1.04;100.00;99578.70;105409;1297;59040;-71
2023/01/02 03:15:23;;;;;;;214.40;108.70;;;;;;;1.04;100.00;99582.36;105514;1302;59058;-73
2023/01/02 03:18:36;;;;;;;188.40;106.70;;;;;;;1.05;100.00;99586.55;106036;1287;66856;-72
2023/01/02 03:21:09;;;;;;;159.60;100.20;;;;;;;1.03;100.00;99586.58;105719;1295;60871;-72
2023/01/02 03:23:41;;;;;;;159.40;100.60;;;;;;;1.01;100.00;99590.65;105594;1293;65070;-72
2023/01/02 03:26:11;;;;;;;156.10;99.30;;;;;;;0.98;100.00;99585.98;105703;1295;59000;-72
2023/01/02 03:28:41;;;;;;;167.10;103.90;;;;;;;0.96;100.00;99584.80;105728;1300;59102;-72
2023/01/02 03:31:13;;;;;;;155.90;96.40;;;;;;;0.91;100.00;99580.69;105730;1298;66951;-72
2023/01/02 03:33:45;;;;;;;154.60;98.10;;;;;;;0.86;100.00;99572.55;105616;1293;59998;-72
2023/01/02 03:36:18;;;;;;;150.60;92.90;;;;;;;0.83;100.00;99575.39;105567;1300;65292;-72
2023/01/02 03:39:18;;;;;;;154.60;97.60;;;;;;;0.77;100.00;99579.02;105714;1294;59046;-72
2023/01/02 03:41:53;;;;;;;144.10;90.00;;;;;;;0.67;100.00;99579.19;105402;1294;59166;-72
2023/01/02 03:44:23;;;;;;;152.60;101.40;;;;;;;0.62;100.00;99584.88;103947;1296;1002442;-72
2023/01/02 03:46:58;;;;;;;155.70;101.00;;;;;;;0.60;100.00;99587.70;105393;1297;61062;-72
2023/01/02 03:49:31;;;;;;;143.70;97.90;;;;;;;0.62;100.00;99576.47;105185;1299;62873;-72
2023/01/02 03:51:58;;;;;;;140.10;95.50;;;;;;;0.63;100.00;99571.38;105220;1300;59230;-72
2023/01/02 03:54:25;;;;;;;148.20;92.50;;;;;;;0.61;100.00;99563.20;105419;1297;58888;-72
2023/01/02 03:56:58;;;;;;;148.90;92.10;;;;;;;0.53;100.00;99567.36;105474;1294;67029;-73
2023/01/02 03:59:59;;;;;;;146.70;89.40;;;;;;;0.41;100.00;99573.87;105584;1294;60901;-72
2023/01/02 04:02:46;;;;;;;133.60;88.80;;;;;;;0.36;100.00;99577.45;105570;1286;63029;-72
2023/01/02 04:05:19;;;;;;;137.40;87.90;;;;;;;0.38;100.00;99575.48;105606;1295;59070;-71
2023/01/02 04:08:07;;;;;;;131.30;85.90;;;;;;;0.37;100.00;99574.10;105498;1298;58929;-72
2023/01/02 04:10:36;;;;;;;128.70;83.00;;;;;;;0.32;100.00;99568.95;105557;1300;66219;-72
2023/01/02 04:13:10;;;;;;;142.40;94.90;;;;;;;0.28;100.00;99573.72;105582;1295;60919;-71
2023/01/02 04:15:38;;;;;;;146.10;91.30;;;;;;;0.31;100.00;99585.03;105564;1295;65105;-72
2023/01/02 04:18:10;;;;;;;144.10;91.20;;;;;;;0.31;100.00;99585.02;105615;1289;58938;-72
2023/01/02 04:20:43;;;;;;;150.30;94.10;;;;;;;0.32;100.00;99581.88;105895;1290;58814;-73
2023/01/02 04:23:15;;;;;;;163.40;90.30;;;;;;;0.35;100.00;99581.82;106064;1289;67160;-72
2023/01/02 04:25:48;;;;;;;159.50;90.60;;;;;;;0.40;100.00;99585.77;106052;1288;60793;-71
2023/01/02 04:28:24;;;;;;;172.60;96.70;;;;;;;0.44;100.00;99586.55;106067;1288;65120;-72
2023/01/02 04:31:02;;;;;;;164.20;94.80;;;;;;;0.49;100.00;99583.35;106034;1289;58991;-72
2023/01/02 04:33:30;;;;;;;174.00;86.70;;;;;;;0.51;100.00;99574.73;106044;1288;58899;-72
2023/01/02 04:35:57;;;;;;;156.80;92.30;;;;;;;0.55;100.00;99567.66;105785;1285;67055;-72
2023/01/02 04:38:22;;;;;;;174.60;99.40;;;;;;;0.59;100.00;99567.09;106057;1287;58901;-72
2023/01/02 04:40:49;;;;;;;162.70;91.20;;;;;;;0.57;100.00;99562.03;106041;1290;58958;-71
2023/01/02 04:43:18;;;;;;;160.30;91.10;;;;;;;0.53;100.00;99554.95;106045;1282;59052;-71
2023/01/02 04:45:48;;;;;;;164.70;88.10;;;;;;;0.50;100.00;99563.39;105698;1291;58945;-71
2023/01/02 04:48:14;;;;;;;150.40;86.30;;;;;;;0.50;100.00;99567.60;106072;1287;66124;-71
2023/01/02 04:50:40;;;;;;;143.30;88.60;;;;;;;0.51;100.00;99565.13;105867;1291;60950;-71
2023/01/02 04:53:08;;;;;;;142.00;85.00;;;;;;;0.54;100.00;99557.90;106026;1281;58933;-71
2023/01/02 04:55:34;;;;;;;142.10;83.80;;;;;;;0.56;100.00;99555.26;105878;1292;58945;-71
2023/01/02 04:58:00;;;;;;;150.90;87.00;;;;;;;0.56;100.00;99551.06;106060;1287;58918;-71
2023/01/02 05:00:27;;;;;;;191.30;89.30;;;;;;;0.59;100.00;99547.69;106055;1281;58992;-71
2023/01/02 05:02:53;;;;;;;176.40;90.40;;;;;;;0.65;100.00;99551.07;106057;1288;59123;-72
2023/01/02 05:05:19;;;;;;;165.50;92.50;;;;;;;0.70;100.00;99541.73;106015;1288;59164;-72
2023/01/02 05:07:45;;;;;;;156.00;88.60;;;;;;;0.72;100.00;99538.37;106046;1292;58914;-72
2023/01/02 05:10:12;;;;;;;152.60;89.60;;;;;;;0.70;100.00;99535.77;106046;1288;59170;-72
2023/01/02 05:12:38;;;;;;;183.20;87.90;;;;;;;0.71;100.00;99529.98;105860;1291;58912;-72
2023/01/02 05:15:07;;;;;;;204.90;87.80;;;;;;;0.71;100.00;99530.16;106039;1289;59088;-71
2023/01/02 05:17:38;;;;;;;206.50;94.30;;;;;;;0.71;100.00;99527.73;106034;1282;62725;-72
2023/01/02 05:20:06;;;;;;;177.00;93.80;;;;;;;0.71;100.00;99530.17;105676;1293;59094;-72
2023/01/02 05:25:17;;;;;;;174.00;83.20;;;;;;;0.74;100.00;99533.42;106066;1281;67101;-71
2023/01/02 05:27:44;;;;;;;140.00;85.00;;;;;;;0.78;100.00;99530.04;106020;1288;61492;-72
2023/01/02 05:30:11;;;;;;;144.20;86.60;;;;;;;0.82;100.00;99522.09;106041;1289;65095;-72
2023/01/02 05:32:36;;;;;;;127.90;79.40;;;;;;;0.85;100.00;99518.54;106061;1281;58730;-73
2023/01/02 05:35:04;;;;;;;126.40;82.60;;;;;;;0.86;100.00;99511.49;106041;1289;59253;-72
2023/01/02 05:37:30;;;;;;;141.40;89.20;;;;;;;0.85;100.00;99505.40;106021;1288;65962;-72
2023/01/02 05:39:56;;;;;;;148.90;86.60;;;;;;;0.83;100.00;99498.44;106041;1282;58883;-72
2023/01/02 05:42:23;;;;;;;150.00;86.30;;;;;;;0.80;100.00;99504.45;105896;1285;176860;-72
2023/01/02 05:44:50;;;;;;;159.10;86.20;;;;;;;0.78;100.00;99507.48;106055;1287;59259;-73
2023/01/02 05:47:16;;;;;;;166.00;84.70;;;;;;;0.75;100.00;99507.70;106036;1288;59269;-72
2023/01/02 05:49:42;;;;;;;149.70;82.50;;;;;;;0.75;100.00;99503.32;105304;1288;1002515;-72
2023/01/02 05:52:08;;;;;;;136.90;80.90;;;;;;;0.77;100.00;99504.15;106050;1291;60045;-72
2023/01/02 05:54:34;;;;;;;131.60;78.70;;;;;;;0.79;100.00;99503.25;105675;1286;59438;-71
2023/01/02 05:57:00;;;;;;;150.30;79.90;;;;;;;0.78;100.00;99506.23;106040;1295;59070;-72
2023/01/02 05:59:27;;;;;;;173.90;81.10;;;;;;;0.79;100.00;99511.81;106052;1289;58836;-72
2023/01/02 06:01:52;;;;;;;142.80;77.00;;;;;;;0.80;100.00;99510.04;106057;1288;59060;-72
2023/01/02 06:04:18;;;;;;;130.00;79.00;;;;;;;0.83;100.00;99511.91;106053;1288;58992;-73
2023/01/02 06:06:45;;;;;;;128.20;75.10;;;;;;;0.84;100.00;99515.40;106066;1289;59174;-72
2023/01/02 06:09:13;;;;;;;156.70;87.30;;;;;;;0.83;100.00;99515.59;106075;1282;59136;-72
2023/01/02 06:11:39;;;;;;;156.50;88.40;;;;;;;0.83;100.00;99515.05;106058;1288;67010;-72
2023/01/02 06:14:07;;;;;;;162.70;89.50;;;;;;;0.83;100.00;99518.21;106070;1281;60897;-72
2023/01/02 06:16:34;;;;;;;179.30;89.40;;;;;;;0.81;100.00;99519.66;106016;1288;64844;-72
2023/01/02 06:19:00;;;;;;;199.10;100.50;;;;;;;0.78;100.00;99517.96;105643;1295;59314;-72
2023/01/02 06:21:26;;;;;;;177.10;99.60;;;;;;;0.74;100.00;99519.25;106051;1288;59159;-73
2023/01/02 06:23:55;;;;;;;175.50;100.20;;;;;;;0.72;100.00;99526.48;105793;1295;59519;-71
2023/01/02 06:26:22;;;;;;;185.50;98.80;;;;;;;0.66;100.00;99533.21;106029;1285;61145;-72
2023/01/02 06:28:54;;;;;;;173.20;97.70;;;;;;;0.63;100.00;99541.33;106061;1288;65089;-71
2023/01/02 06:31:22;;;;;;;175.40;96.60;;;;;;;0.57;100.00;99543.88;106045;1281;58851;-72
2023/01/02 06:33:53;;;;;;;154.50;88.00;;;;;;;0.50;100.00;99544.88;106018;1289;58920;-72
2023/01/02 06:36:20;;;;;;;157.70;83.10;;;;;;;0.45;100.00;99547.41;106042;1287;66758;-72
2023/01/02 06:38:46;;;;;;;150.70;78.90;;;;;;;0.41;100.00;99549.56;106027;1288;59932;-72
2023/01/02 06:41:13;;;;;;;149.40;80.20;;;;;;;0.39;100.00;99550.98;106048;1275;58918;-72
2023/01/02 06:43:42;;;;;;;165.50;79.60;;;;;;;0.38;100.00;99555.73;106047;1281;59286;-72
2023/01/02 06:46:10;;;;;;;128.80;68.10;;;;;;;0.36;100.00;99558.22;106055;1288;59185;-72
2023/01/02 06:48:36;;;;;;;154.10;71.90;;;;;;;0.34;100.00;99555.98;106042;1288;67058;-72
2023/01/02 06:51:11;;;;;;;148.70;69.60;;;;;;;0.35;100.00;99555.62;106055;1281;59120;-71
2023/01/02 06:53:39;;;;;;;146.20;70.60;;;;;;;0.36;100.00;99553.48;106033;1287;64864;-73
2023/01/02 06:56:06;;;;;;;162.80;67.30;;;;;;;0.39;100.00;99554.66;106064;1288;59097;-72
2023/01/02 06:58:34;;;;;;;161.70;65.40;;;;;;;0.45;100.00;99551.94;106046;1290;58989;-73
2023/01/02 07:01:03;;;;;;;158.30;61.20;;;;;;;0.52;100.00;99546.23;106065;1288;66000;-73
2023/01/02 07:03:30;;;;;;;123.80;62.90;;;;;;;0.58;100.00;99546.47;106072;1288;59965;-72
2023/01/02 07:06:07;;;;;;;133.70;57.60;;;;;;;0.63;100.00;99544.81;106019;1288;63809;-72
2023/01/02 07:08:34;;;;;;;146.90;55.60;;;;;;;0.67;100.00;99542.98;106052;1283;58880;-72
2023/01/02 07:11:09;;;;;;;126.40;62.00;;;;;;;0.72;100.00;99542.55;106039;1281;58827;-72
2023/01/02 07:13:35;;;;;;;125.60;65.20;;;;;;;0.75;100.00;99544.08;105690;1292;66633;-73
2023/01/02 07:16:03;;;;;;;108.30;60.90;;;;;;;0.76;100.00;99541.42;106041;1282;58845;-73
2023/01/02 07:18:30;;;;;;;129.80;60.00;;;;;;;0.78;100.00;99540.88;106052;1281;63744;-72
2023/01/02 07:20:56;;;;;;;125.80;64.60;;;;;;;0.79;100.00;99547.84;106037;1289;59067;-72
2023/01/02 07:23:23;;;;;;;127.10;64.80;;;;;;;0.80;100.00;99547.31;106065;1288;58856;-72
2023/01/02 07:25:58;;;;;;;145.70;68.20;;;;;;;0.82;100.00;99543.60;106056;1281;59019;-72
2023/01/02 07:28:25;;;;;;;166.80;66.80;;;;;;;0.85;100.00;99539.86;105792;1293;59156;-72
2023/01/02 07:30:56;;;;;;;143.20;64.40;;;;;;;0.86;100.00;99538.27;106036;1281;65043;-72
2023/01/02 07:33:23;;;;;;;116.00;60.90;;;;;;;0.90;100.00;99539.42;106033;1278;58881;-72
2023/01/02 07:35:49;;;;;;;126.60;63.80;;;;;;;0.93;100.00;99534.46;105779;1294;58961;-72
2023/01/02 07:38:15;;;;;;;121.60;63.70;;;;;;;0.96;100.00;99534.75;106071;1281;59130;-73
2023/01/02 07:40:41;;;;;;;135.10;61.40;;;;;;;0.99;100.00;99543.09;106064;1288;58946;-73
2023/01/02 07:43:07;;;;;;;100.00;59.10;;;;;;;1.01;100.00;99543.94;106053;1281;59099;-72
2023/01/02 07:45:33;;;;;;;95.50;57.80;;;;;;;1.04;100.00;99541.77;106041;1288;58995;-71
2023/01/02 07:48:00;;;;;;;107.70;57.20;;;;;;;1.05;100.00;99544.91;105786;1295;58949;-72
2023/01/02 07:50:26;;;;;;;111.60;58.60;;;;;;;1.08;100.00;99551.70;104951;1294;1002119;-72
2023/01/02 07:52:52;;;;;;;113.10;59.60;;;;;;;1.11;100.00;99547.06;106057;1289;59031;-72
2023/01/02 07:55:20;;;;;;;124.00;60.20;;;;;;;1.15;100.00;99545.05;106042;1288;59188;-71
2023/01/02 07:57:49;;;;;;;104.30;60.20;;;;;;;1.16;100.00;99542.77;106037;1288;58999;-72
2023/01/02 08:00:17;;;;;;;109.20;58.20;;;;;;;1.19;100.00;99542.36;106088;1289;59249;-72
2023/01/02 08:02:44;;;;;;;113.40;61.80;;;;;;;1.23;100.00;99541.75;106068;1281;66867;-72
2023/01/02 08:05:12;;;;;;;103.90;56.50;;;;;;;1.24;100.00;99539.44;105781;1278;58852;-71
2023/01/02 08:07:38;;;;;;;96.20;58.00;;;;;;;1.26;100.00;99531.38;105748;1294;64094;-73
2023/01/02 08:10:07;;;;;;;99.90;59.40;;;;;;;1.28;100.00;99532.89;106012;1288;59035;-73
2023/01/02 08:12:34;;;;;;;111.10;59.30;;;;;;;1.32;100.00;99532.98;106065;1281;59002;-72
2023/01/02 08:14:59;;;;;;;108.40;59.50;;;;;;;1.35;100.00;99531.71;106041;1281;58880;-73
2023/01/02 08:17:25;;;;;;;114.10;64.00;;;;;;;1.40;100.00;99532.66;106049;1282;58900;-73
2023/01/02 08:19:52;;;;;;;115.50;65.20;;;;;;;1.44;100.00;99526.79;105898;1288;59357;-73
2023/01/02 08:22:17;;;;;;;108.40;63.80;;;;;;;1.49;100.00;99530.52;106055;1281;58965;-72
2023/01/02 08:24:44;;;;;;;118.90;66.50;;;;;;;1.53;100.00;99532.55;106040;1283;59025;-73
2023/01/02 08:27:10;;;;;;;100.60;65.10;;;;;;;1.58;100.00;99534.72;106060;1289;58916;-73
2023/01/02 08:29:36;;;;;;;107.00;68.50;;;;;;;1.59;100.00;99532.79;105894;1292;59051;-73
2023/01/02 08:32:02;;;;;;;102.70;70.10;;;;;;;1.59;100.00;99527.70;106027;1291;59023;-73
2023/01/02 08:34:28;;;;;;;103.20;71.00;;;;;;;1.63;100.00;99530.77;105799;1290;59096;-73
2023/01/02 08:36:54;;;;;;;105.60;72.30;;;;;;;1.67;100.00;99530.48;106039;1283;67385;-71
2023/01/02 08:39:20;;;;;;;112.60;74.80;;;;;;;1.70;100.00;99532.52;106049;1285;58930;-73
2023/01/02 08:41:46;;;;;;;109.40;71.70;;;;;;;1.69;100.00;99533.23;105883;1284;59385;-72
2023/01/02 08:44:12;;;;;;;109.40;73.40;;;;;;;1.68;100.00;99537.65;106061;1281;58845;-72
2023/01/02 08:46:38;;;;;;;107.80;74.50;;;;;;;1.71;100.00;99527.42;106026;1281;59169;-73
2023/01/02 08:49:04;;;;;;;118.60;79.70;;;;;;;1.79;100.00;99520.60;106026;1287;59095;-72
2023/01/02 08:51:31;;;;;;;113.80;76.70;;;;;;;1.87;100.00;99521.27;106037;1282;58969;-72
2023/01/02 08:53:57;;;;;;;109.00;77.70;;;;;;;1.94;100.00;99517.79;106039;1288;58918;-73
2023/01/02 08:56:26;;;;;;;110.80;78.20;;;;;;;2.03;100.00;99520.02;106039;1289;58969;-71
2023/01/02 08:58:55;;;;;;;105.90;75.90;;;;;;;2.09;100.00;99521.81;105701;1294;59007;-71
2023/01/02 09:01:24;;;;;;;102.20;75.10;;;;;;;2.12;100.00;99516.83;106033;1288;67021;-72
2023/01/02 09:03:51;;;;;;;98.30;70.90;;;;;;;2.15;100.00;99516.77;106064;1288;59963;-73
2023/01/02 09:06:18;;;;;;;102.60;73.60;;;;;;;2.19;100.00;99514.21;106027;1288;65140;-73
2023/01/02 09:08:44;;;;;;;100.20;74.90;;;;;;;2.26;100.00;99510.55;105780;1291;59012;-73
2023/01/02 09:11:18;;;;;;;99.20;73.80;;;;;;;2.31;100.00;99510.05;105806;1292;58818;-71
2023/01/02 09:13:44;;;;;;;105.20;77.90;;;;;;;2.41;100.00;99509.09;105823;1291;67186;-72
2023/01/02 09:16:11;;;;;;;103.50;76.40;;;;;;;2.47;100.00;99509.66;105703;1294;58989;-72
2023/01/02 09:18:38;;;;;;;100.50;75.50;;;;;;;2.52;100.00;99508.45;105828;1284;63952;-72
2023/01/02 09:21:05;;;;;;;104.60;77.70;;;;;;;2.60;100.00;99504.38;105475;1300;59105;-72
2023/01/02 09:23:32;;;;;;;108.20;81.80;;;;;;;2.69;100.00;99500.30;105821;1291;58965;-72
2023/01/02 09:25:59;;;;;;;103.30;79.30;;;;;;;2.81;100.00;99497.52;105775;1290;66063;-72
2023/01/02 09:28:27;;;;;;;109.20;80.50;;;;;;;2.94;100.00;99500.67;105817;1292;61093;-73
2023/01/02 09:30:54;;;;;;;106.10;80.40;;;;;;;3.09;100.00;99496.23;105798;1291;65165;-73
2023/01/02 09:33:21;;;;;;;110.40;82.40;;;;;;;3.22;100.00;99492.86;105533;1296;59070;-72
2023/01/02 09:35:47;;;;;;;108.80;78.70;;;;;;;3.37;100.00;99485.56;105799;1292;59062;-73
2023/01/02 09:38:13;;;;;;;107.00;81.70;;;;;;;3.52;100.00;99478.61;105798;1291;58977;-72
2023/01/02 09:40:47;;;;;;;104.40;78.80;;;;;;;3.67;100.00;99473.75;105962;1292;58938;-72
2023/01/02 09:43:25;;;;;;;100.00;74.20;;;;;;;3.83;100.00;99471.84;106026;1289;64889;-72
2023/01/02 09:45:54;;;;;;;99.50;75.00;;;;;;;4.00;100.00;99470.08;105713;1291;58937;-72
2023/01/02 09:48:23;;;;;;;95.20;74.00;;;;;;;4.18;100.00;99463.70;106044;1288;58893;-73
2023/01/02 09:50:49;;;;;;;91.80;71.10;;;;;;;4.34;100.00;99455.41;106048;1289;67054;-72
2023/01/02 09:53:15;;;;;;;90.80;71.00;;;;;;;4.51;100.00;99457.30;106060;1287;59696;-73
2023/01/02 09:55:54;;;;;;;86.40;69.60;;;;;;;4.68;100.00;99458.82;106035;1282;59071;-73
2023/01/02 09:58:49;;;;;;;82.80;63.90;;;;;;;4.85;100.00;99456.26;105987;1289;58861;-72
2023/01/02 10:01:54;;;;;;;82.50;62.60;;;;;;;5.02;100.00;99455.27;105918;1287;58896;-72
2023/01/02 10:04:30;;;;;;;80.40;62.10;;;;;;;5.22;100.00;99443.10;105372;1297;65927;-73
2023/01/02 10:07:12;;;;;;;79.70;62.40;;;;;;;5.39;100.00;99437.34;105403;1297;61442;-72
2023/01/02 10:10:01;;;;;;;73.00;60.20;;;;;;;5.54;100.00;99438.52;105391;1294;64973;-72
2023/01/02 10:12:33;;;;;;;70.90;57.90;;;;;;;5.70;100.00;99438.07;105371;1296;58988;-73
2023/01/02 10:15:06;;;;;;;71.30;58.70;;;;;;;5.86;100.00;99437.95;105358;1296;58815;-72
2023/01/02 10:17:45;;;;;;;70.60;57.60;;;;;;;6.02;100.00;99434.13;105145;1301;67093;-72
2023/01/02 10:20:15;;;;;;;70.20;51.30;;;;;;;6.18;100.00;99434.02;105106;1297;61382;-72
2023/01/02 10:22:56;;;;;;;63.70;50.00;;;;;;;6.32;100.00;99425.84;105377;1297;64887;-72
2023/01/02 10:25:29;;;;;;;62.90;50.90;;;;;;;6.47;100.00;99421.64;105403;1290;59260;-72
2023/01/02 10:28:14;;;;;;;58.50;49.20;;;;;;;6.61;100.00;99419.45;105389;1298;58981;-73
2023/01/02 10:30:49;;;;;;;63.80;49.70;;;;;;;6.74;100.00;99413.77;105366;1297;67473;-72
2023/01/02 10:33:40;;;;;;;57.60;47.70;;;;;;;6.87;100.00;99412.14;105175;1303;59786;-72
2023/01/02 10:36:13;;;;;;;57.60;47.90;;;;;;;6.99;100.00;99407.66;105376;1297;65140;-72
2023/01/02 10:38:39;;;;;;;61.20;49.10;;;;;;;7.12;100.00;99405.67;105362;1297;58929;-72
2023/01/02 10:41:05;;;;;;;59.90;45.60;;;;;;;7.23;100.00;99400.04;105475;1290;59335;-72
2023/01/02 10:43:33;;;;;;;57.10;45.80;;;;;;;7.35;100.00;99397.56;106072;1288;59017;-73
2023/01/02 10:46:03;;;;;;;56.00;45.20;;;;;;;7.43;100.00;99398.39;105690;1293;60889;-73
2023/01/02 10:48:32;;;;;;;;;;;;;;;7.51;100.00;99394.48;106042;1283;64028;-72
2023/01/02 10:51:05;;;;;;;54.30;44.10;;;;;;;7.59;100.00;99391.60;106060;1281;59265;-72
2023/01/02 10:53:35;;;;;;;69.40;58.30;;;;;;;7.65;100.00;99387.08;105784;1287;59622;-72
2023/01/02 10:56:18;;;;;;;69.90;59.10;;;;;;;7.73;100.00;99385.10;105894;1284;75143;-72
2023/01/02 10:58:47;;;;;;;67.00;57.70;;;;;;;7.81;100.00;99380.09;105874;1284;60882;-73
2023/01/02 11:01:18;;;;;;;65.30;50.80;;;;;;;7.88;100.00;99375.52;106052;1281;64109;-72
2023/01/02 11:03:46;;;;;;;59.80;50.30;;;;;;;7.93;100.00;99376.53;105871;1290;58928;-73
2023/01/02 11:06:32;;;;;;;64.20;51.20;;;;;;;7.98;100.00;99370.78;106046;1289;60591;-72
2023/01/02 11:09:01;;;;;;;65.60;53.80;;;;;;;8.07;100.00;99369.94;106059;1288;65842;-72
2023/01/02 11:11:30;;;;;;;63.20;52.90;;;;;;;8.18;100.00;99363.55;106026;1289;59164;-73
2023/01/02 11:14:05;;;;;;;59.60;48.60;;;;;;;8.30;100.00;99362.25;105822;1285;63960;-72
2023/01/02 11:16:37;;;;;;;57.70;47.60;;;;;;;8.46;100.00;99358.77;106060;1281;59158;-71
2023/01/02 11:19:06;;;;;;;64.00;51.70;;;;;;;8.60;100.00;99350.80;106047;1281;58952;-72